Main page
METAR-TAF:

METAR-TAF

Airports :

Adolfo Suárez Madrid–Barajas Airport

Madrid, Spain

latitude: 40-27N, longitude: 003-33W, elevation: 609 m

Current weather observation

The report was made 20 minutes ago, at 10:00 UTC
Wind 3 kt from the North, varying between Northwest and East/Northeast
Temperature 11°C
Humidity 82%
Pressure 1003 hPa
Visibility 10 km or more
Broken clouds at a height of 6000 ft

METAR: LEMD 191000Z 36003KT 320V060 9999 BKN060 11/08 Q1003 NOSIG

Time: 11:20 (10:20 UTC)

Forecast

The report was made 5 hours and 20 minutes ago, at 05:00 UTC
Forecast valid from 19 at 06 UTC to 20 at 12 UTC
Wind 6 kt from the North
Visibility 10 km or more
Scattered clouds at a height of 3000 ft
Scattered clouds at a height of 5000 ft
Becoming
from 19 at 12 UTC to 19 at 15 UTC
Wind 7 kt from the Southwest
Becoming
from 20 at 01 UTC to 20 at 03 UTC
Wind 14 kt from the Southwest

TAF: LEMD 190500Z 1906/2012 01006KT 9999 SCT030 SCT050 TX14/1915Z TN09/2006Z BECMG 1912/1915 23007KT BECMG 2001/2003 22014KT

Weather observations and forecasts of more than 4000 airports (METAR and TAF reports).

The available stations are represented by yellow and red dots on the map.

Hover mouse over dot to see the name of the station.

Then click to see weather observations and forecasts.

To change the map : click on the green buttons with a black cross to zoom in, on the green button with a dash to zoom out, or on the green arrows for adjacent maps.


METAR-TAF: